Aviosuperficie AS77

IT-0302 · Friuli Venezia Giulia, 意大利

罗盘
风向 的 风向 030°
风: 10 kt, 3 beaufort

添加一条跑道以查看侧风和逆风信息。

添置 跑道
0 1.000 2.000 3.000 4.000 5.000
SCT 2.500 ft
OVC 3.500 ft
METAR LIPI 040955Z 03010KT 7000 -RA SCT025 OVC035 08/06 Q1014 RMK OVC VIS MIN 7000 WIND THR06 07011KT WIND THR24 05011KT WHT

METAR Aviosuperficie AS77 - IT-0302

Aviosuperficie AS77是,意大利中的小机场。 该领域的国际民航组织标志是IT-0302.

这份报告是针对2022年12月4日 10:55, 当地时间在Rivolto Air Base进行的。

机场观察

风向为030°,速度为10 kt。

可见度为7 km。

有疏云,零星散落的云朵在2.500 ft的高度 和 乌云密布在3.500 ft的高度。 破损或更高的上限为3.500 ft。

当前天气为光 雨。 温度为8 °C,阵风为3 °C。 露点为6 °C,相对湿度为87%。 海平面上的气压为1014 hPa (QNH)。

白天

今天,太阳从07:31升起,在16:22降落。 这适用于Aviosuperficie AS77,世界夏令时可能有所不同。 当地时间与世界标准时间之间的时差为+1 小时。 当前,没有夏令时有效。

公司介绍

我们没有关于这个机场的公司信息。

体会

到Vliegles.nl去找飞行课程,跳伞和其他飞行体验。 浏览页面,了解Aviosuperficie AS77附近所有可用的活动。 你也可以使用搜索功能来寻找你所在地附近的特定飞行课程、跳伞或其他飞行体验。

乌云

2.500 ft SCT 疏云,零星散落的云朵
3.500 ft OVC 乌云密布

温度 & 天气

天气 光 雨
温度 8 °C
露点 6 °C
相对湿度 87%
风寒 3 °C
Kp-index 2 (0-9)

评论

OVC VIS MIN 7000 WIND THR06 07011KT WIND THR24 05011KT

白天

日出
07:32
中午
11:57
日落
16:23 (4:17)

小工具

你想在你的网站上有一个关于Aviosuperficie AS77的当前航空天气(METAR)的小部件吗?

显示HTML代码

我们和第三方通过cookies跟踪您在我们网站上的互联网行为。如果你继续,我们认为你同意我们的饼干政策